sensor_id;sensor_type;location;lat;lon;timestamp;pressure;altitude;pressure_sealevel;temperature;humidity
55418;BME280;41287;47.554;7.844;2023-02-21T00:01:19;98573.63;;;16.85;60.24
55418;BME280;41287;47.554;7.844;2023-02-21T00:04:03;98566.25;;;16.86;60.21
55418;BME280;41287;47.554;7.844;2023-02-21T00:06:47;98569.78;;;16.86;60.19
55418;BME280;41287;47.554;7.844;2023-02-21T00:09:31;98575.19;;;16.86;60.27
55418;BME280;41287;47.554;7.844;2023-02-21T00:12:15;98570.09;;;16.85;60.16
55418;BME280;41287;47.554;7.844;2023-02-21T00:14:59;98567.56;;;16.88;60.12
55418;BME280;41287;47.554;7.844;2023-02-21T00:17:42;98559.75;;;16.87;60.22
55418;BME280;41287;47.554;7.844;2023-02-21T00:20:28;98557.53;;;16.89;60.25
55418;BME280;41287;47.554;7.844;2023-02-21T00:23:11;98567.88;;;16.87;60.25
55418;BME280;41287;47.554;7.844;2023-02-21T00:25:56;98571.69;;;16.86;60.24
55418;BME280;41287;47.554;7.844;2023-02-21T00:28:39;98560.84;;;16.86;60.30
55418;BME280;41287;47.554;7.844;2023-02-21T00:31:23;98557.38;;;16.85;60.60
55418;BME280;41287;47.554;7.844;2023-02-21T00:34:07;98553.88;;;16.85;60.19
55418;BME280;41287;47.554;7.844;2023-02-21T00:36:52;98554.34;;;16.87;60.39
55418;BME280;41287;47.554;7.844;2023-02-21T00:39:35;98542.72;;;16.86;60.22
55418;BME280;41287;47.554;7.844;2023-02-21T00:42:19;98536.50;;;16.86;60.36
55418;BME280;41287;47.554;7.844;2023-02-21T00:45:06;98529.97;;;16.87;60.44
55418;BME280;41287;47.554;7.844;2023-02-21T00:47:50;98533.78;;;16.86;60.40
55418;BME280;41287;47.554;7.844;2023-02-21T00:50:35;98531.88;;;16.86;60.47
55418;BME280;41287;47.554;7.844;2023-02-21T00:53:23;98535.38;;;16.87;60.54
55418;BME280;41287;47.554;7.844;2023-02-21T00:56:07;98532.38;;;16.88;60.36
55418;BME280;41287;47.554;7.844;2023-02-21T00:58:51;98529.97;;;16.87;60.50
55418;BME280;41287;47.554;7.844;2023-02-21T01:01:34;98528.88;;;16.88;60.40
55418;BME280;41287;47.554;7.844;2023-02-21T01:04:18;98536.19;;;16.87;60.42
55418;BME280;41287;47.554;7.844;2023-02-21T01:07:02;98535.38;;;16.87;60.53
55418;BME280;41287;47.554;7.844;2023-02-21T01:09:46;98535.38;;;16.87;60.47
55418;BME280;41287;47.554;7.844;2023-02-21T01:12:30;98537.00;;;16.88;60.57
55418;BME280;41287;47.554;7.844;2023-02-21T01:15:14;98535.38;;;16.87;60.56
55418;BME280;41287;47.554;7.844;2023-02-21T01:17:58;98532.88;;;16.90;60.20
55418;BME280;41287;47.554;7.844;2023-02-21T01:20:42;98537.78;;;16.88;60.70
55418;BME280;41287;47.554;7.844;2023-02-21T01:23:26;98535.88;;;16.89;60.52
55418;BME280;41287;47.554;7.844;2023-02-21T01:26:10;98535.88;;;16.89;60.48
55418;BME280;41287;47.554;7.844;2023-02-21T01:28:54;98540.50;;;16.88;60.60
55418;BME280;41287;47.554;7.844;2023-02-21T01:31:38;98537.78;;;16.88;60.63
55418;BME280;41287;47.554;7.844;2023-02-21T01:34:22;98539.69;;;16.88;60.58
55418;BME280;41287;47.554;7.844;2023-02-21T01:37:06;98535.09;;;16.88;60.60
55418;BME280;41287;47.554;7.844;2023-02-21T01:39:50;98537.78;;;16.88;60.56
55418;BME280;41287;47.554;7.844;2023-02-21T01:42:34;98537.00;;;16.88;60.56
55418;BME280;41287;47.554;7.844;2023-02-21T01:48:06;98525.88;;;16.89;60.48
55418;BME280;41287;47.554;7.844;2023-02-21T01:50:53;98525.06;;;16.89;60.48
55418;BME280;41287;47.554;7.844;2023-02-21T01:53:39;98528.56;;;16.89;60.56
55418;BME280;41287;47.554;7.844;2023-02-21T01:56:22;98528.88;;;16.88;60.64
55418;BME280;41287;47.554;7.844;2023-02-21T01:59:08;98530.97;;;16.91;60.63
55418;BME280;41287;47.554;7.844;2023-02-21T02:02:00;98527.47;;;16.90;60.71
55418;BME280;41287;47.554;7.844;2023-02-21T02:04:46;98521.56;;;16.88;60.61
55418;BME280;41287;47.554;7.844;2023-02-21T02:07:33;98519.66;;;16.89;60.80
55418;BME280;41287;47.554;7.844;2023-02-21T02:10:17;98516.94;;;16.89;60.63
55418;BME280;41287;47.554;7.844;2023-02-21T02:18:56;98513.13;;;16.90;60.74
55418;BME280;41287;47.554;7.844;2023-02-21T02:21:50;98504.50;;;16.88;60.86
55418;BME280;41287;47.554;7.844;2023-02-21T02:24:37;98506.13;;;16.89;60.70
55418;BME280;41287;47.554;7.844;2023-02-21T02:35:11;98501.50;;;16.89;60.87
55418;BME280;41287;47.554;7.844;2023-02-21T02:37:51;98506.13;;;16.89;60.75
55418;BME280;41287;47.554;7.844;2023-02-21T02:40:45;98503.41;;;16.89;60.73
55418;BME280;41287;47.554;7.844;2023-02-21T02:43:19;98492.59;;;16.89;60.82
55418;BME280;41287;47.554;7.844;2023-02-21T02:45:55;98486.56;;;16.92;60.58
55418;BME280;41287;47.554;7.844;2023-02-21T02:48:28;98487.66;;;16.91;60.74
55418;BME280;41287;47.554;7.844;2023-02-21T02:50:56;98494.19;;;16.90;60.78
55418;BME280;41287;47.554;7.844;2023-02-21T02:53:26;98481.44;;;16.90;60.83
55418;BME280;41287;47.554;7.844;2023-02-21T02:55:59;98477.13;;;16.89;60.69
55418;BME280;41287;47.554;7.844;2023-02-21T02:58:28;98474.13;;;16.91;60.74
55418;BME280;41287;47.554;7.844;2023-02-21T03:04:22;98469.81;;;16.90;60.94
55418;BME280;41287;47.554;7.844;2023-02-21T03:13:02;98471.72;;;16.89;60.92
55418;BME280;41287;47.554;7.844;2023-02-21T03:20:37;98463.31;;;16.91;60.81
55418;BME280;41287;47.554;7.844;2023-02-21T03:23:03;98465.22;;;16.90;60.85
55418;BME280;41287;47.554;7.844;2023-02-21T03:25:30;98470.63;;;16.90;60.74
55418;BME280;41287;47.554;7.844;2023-02-21T03:27:59;98468.38;;;16.92;60.78
55418;BME280;41287;47.554;7.844;2023-02-21T03:30:26;98468.72;;;16.91;60.89
55418;BME280;41287;47.554;7.844;2023-02-21T03:32:53;98461.41;;;16.91;60.93
55418;BME280;41287;47.554;7.844;2023-02-21T03:35:20;98473.78;;;16.92;61.00
55418;BME280;41287;47.554;7.844;2023-02-21T03:37:50;98464.09;;;16.91;60.90
55418;BME280;41287;47.554;7.844;2023-02-21T03:40:22;98468.06;;;16.94;61.12
55418;BME280;41287;47.554;7.844;2023-02-21T03:42:52;98473.78;;;16.92;60.85
55418;BME280;41287;47.554;7.844;2023-02-21T03:45:19;98464.56;;;16.93;61.08
55418;BME280;41287;47.554;7.844;2023-02-21T03:47:46;98467.59;;;16.92;61.13
55418;BME280;41287;47.554;7.844;2023-02-21T03:50:12;98478.44;;;16.92;60.98
55418;BME280;41287;47.554;7.844;2023-02-21T03:52:38;98480.81;;;16.93;61.20
55418;BME280;41287;47.554;7.844;2023-02-21T03:55:06;98478.44;;;16.92;61.11
55418;BME280;41287;47.554;7.844;2023-02-21T03:57:32;98490.53;;;16.94;61.11
55418;BME280;41287;47.554;7.844;2023-02-21T03:59:58;98478.09;;;16.93;61.00
55418;BME280;41287;47.554;7.844;2023-02-21T04:02:23;98483.50;;;16.93;60.99
55418;BME280;41287;47.554;7.844;2023-02-21T04:04:49;98488.94;;;16.93;61.05
55418;BME280;41287;47.554;7.844;2023-02-21T04:07:16;98483.50;;;16.93;61.01
55418;BME280;41287;47.554;7.844;2023-02-21T04:09:41;98488.94;;;16.93;60.98
55418;BME280;41287;47.554;7.844;2023-02-21T04:12:07;98478.91;;;16.94;61.06
55418;BME280;41287;47.554;7.844;2023-02-21T04:14:33;98485.41;;;16.93;60.97
55418;BME280;41287;47.554;7.844;2023-02-21T04:16:58;98487.31;;;16.92;61.06
55418;BME280;41287;47.554;7.844;2023-02-21T04:19:23;98488.94;;;16.93;60.92
55418;BME280;41287;47.554;7.844;2023-02-21T04:21:49;98491.63;;;16.93;60.96
55418;BME280;41287;47.554;7.844;2023-02-21T04:24:14;98493.22;;;16.94;61.04
55418;BME280;41287;47.554;7.844;2023-02-21T04:26:42;98487.81;;;16.94;60.92
55418;BME280;41287;47.554;7.844;2023-02-21T04:29:10;98491.31;;;16.95;61.20
55418;BME280;41287;47.554;7.844;2023-02-21T04:31:35;98490.84;;;16.93;60.97
55418;BME280;41287;47.554;7.844;2023-02-21T04:34:00;98487.03;;;16.94;61.22
55418;BME280;41287;47.554;7.844;2023-02-21T04:36:26;98478.59;;;16.95;61.50
55418;BME280;41287;47.554;7.844;2023-02-21T04:38:51;98474.94;;;17.00;61.60
55418;BME280;41287;47.554;7.844;2023-02-21T04:41:17;98481.66;;;17.03;61.60
55418;BME280;41287;47.554;7.844;2023-02-21T04:43:43;98485.31;;;17.07;61.73
55418;BME280;41287;47.554;7.844;2023-02-21T04:46:09;98476.56;;;17.10;61.96
55418;BME280;41287;47.554;7.844;2023-02-21T04:48:35;98482.16;;;17.13;62.73
55418;BME280;41287;47.554;7.844;2023-02-21T04:51:00;98489.97;;;17.15;63.68
55418;BME280;41287;47.554;7.844;2023-02-21T04:53:26;98489.03;;;17.19;64.42
55418;BME280;41287;47.554;7.844;2023-02-21T04:55:51;98484.09;;;17.21;65.13
55418;BME280;41287;47.554;7.844;2023-02-21T04:58:17;98491.59;;;17.24;65.82
55418;BME280;41287;47.554;7.844;2023-02-21T05:00:44;98490.16;;;17.27;66.90
55418;BME280;41287;47.554;7.844;2023-02-21T05:03:09;98481.72;;;17.28;67.73
55418;BME280;41287;47.554;7.844;2023-02-21T05:05:35;98489.22;;;17.31;68.37
55418;BME280;41287;47.554;7.844;2023-02-21T05:08:00;98487.78;;;17.34;69.07
55418;BME280;41287;47.554;7.844;2023-02-21T05:10:25;98480.94;;;17.36;69.98
55418;BME280;41287;47.554;7.844;2023-02-21T05:12:51;98480.34;;;17.40;70.78
55418;BME280;41287;47.554;7.844;2023-02-21T05:15:18;98484.78;;;17.44;72.50
55418;BME280;41287;47.554;7.844;2023-02-21T05:17:43;98480.66;;;17.47;72.93
55418;BME280;41287;47.554;7.844;2023-02-21T05:20:10;98480.03;;;17.50;73.08
55418;BME280;41287;47.554;7.844;2023-02-21T05:22:40;98478.91;;;17.51;73.53
55418;BME280;41287;47.554;7.844;2023-02-21T05:25:20;98477.50;;;17.53;74.22
55418;BME280;41287;47.554;7.844;2023-02-21T05:27:47;98478.75;;;17.56;74.02
55418;BME280;41287;47.554;7.844;2023-02-21T05:30:14;98482.75;;;17.58;74.67
55418;BME280;41287;47.554;7.844;2023-02-21T05:32:40;98470.50;;;17.61;75.09
55418;BME280;41287;47.554;7.844;2023-02-21T05:35:06;98470.19;;;17.62;75.44
55418;BME280;41287;47.554;7.844;2023-02-21T05:37:34;98474.97;;;17.65;76.03
55418;BME280;41287;47.554;7.844;2023-02-21T05:40:00;98482.47;;;17.68;76.65
55418;BME280;41287;47.554;7.844;2023-02-21T05:42:25;98471.63;;;17.68;76.08
55418;BME280;41287;47.554;7.844;2023-02-21T05:44:51;98466.53;;;17.67;75.04
55418;BME280;41287;47.554;7.844;2023-02-21T05:47:16;98478.00;;;17.64;73.79
55418;BME280;41287;47.554;7.844;2023-02-21T05:49:42;98473.19;;;17.61;72.52
55418;BME280;41287;47.554;7.844;2023-02-21T05:52:10;98471.91;;;17.58;72.03
55418;BME280;41287;47.554;7.844;2023-02-21T05:54:36;98472.53;;;17.55;71.38
55418;BME280;41287;47.554;7.844;2023-02-21T05:57:01;98476.69;;;17.53;70.22
55418;BME280;41287;47.554;7.844;2023-02-21T05:59:27;98479.72;;;17.51;69.98
55418;BME280;41287;47.554;7.844;2023-02-21T06:01:52;98466.47;;;17.50;69.73
55418;BME280;41287;47.554;7.844;2023-02-21T06:04:18;98470.59;;;17.47;69.42
55418;BME280;41287;47.554;7.844;2023-02-21T06:06:43;98470.94;;;17.46;69.09
55418;BME280;41287;47.554;7.844;2023-02-21T06:09:09;98465.84;;;17.44;68.73
55418;BME280;41287;47.554;7.844;2023-02-21T06:11:36;98471.25;;;17.44;68.43
55418;BME280;41287;47.554;7.844;2023-02-21T06:14:04;98464.53;;;17.42;68.19
55418;BME280;41287;47.554;7.844;2023-02-21T06:16:37;98464.84;;;17.40;67.75
55418;BME280;41287;47.554;7.844;2023-02-21T06:19:04;98466.78;;;17.40;67.67
55418;BME280;41287;47.554;7.844;2023-02-21T06:21:30;98466.00;;;17.39;67.46
55418;BME280;41287;47.554;7.844;2023-02-21T06:23:55;98462.78;;;17.37;67.23
55418;BME280;41287;47.554;7.844;2023-02-21T06:26:21;98462.00;;;17.36;66.99
55418;BME280;41287;47.554;7.844;2023-02-21T06:28:47;98465.81;;;17.35;66.80
55418;BME280;41287;47.554;7.844;2023-02-21T06:31:13;98460.69;;;17.34;66.68
55418;BME280;41287;47.554;7.844;2023-02-21T06:33:38;98464.22;;;17.34;66.65
55418;BME280;41287;47.554;7.844;2023-02-21T06:36:11;98464.53;;;17.33;66.30
55418;BME280;41287;47.554;7.844;2023-02-21T06:38:38;98468.38;;;17.32;66.37
55418;BME280;41287;47.554;7.844;2023-02-21T06:41:08;98468.66;;;17.30;66.33
55418;BME280;41287;47.554;7.844;2023-02-21T06:43:34;98465.97;;;17.30;66.18
55418;BME280;41287;47.554;7.844;2023-02-21T06:46:03;98469.78;;;17.29;65.86
55418;BME280;41287;47.554;7.844;2023-02-21T06:48:29;98472.50;;;17.29;65.95
55418;BME280;41287;47.554;7.844;2023-02-21T06:50:56;98474.41;;;17.29;65.96
55418;BME280;41287;47.554;7.844;2023-02-21T06:53:21;98483.31;;;17.29;65.83
55418;BME280;41287;47.554;7.844;2023-02-21T06:55:47;98487.94;;;17.29;65.65
55418;BME280;41287;47.554;7.844;2023-02-21T06:58:12;98484.75;;;17.27;65.58
55418;BME280;41287;47.554;7.844;2023-02-21T07:00:38;98492.88;;;17.27;65.56
55418;BME280;41287;47.554;7.844;2023-02-21T07:03:05;98493.19;;;17.25;65.42
55418;BME280;41287;47.554;7.844;2023-02-21T07:05:33;98494.31;;;17.24;65.30
55418;BME280;41287;47.554;7.844;2023-02-21T07:08:01;98487.28;;;17.23;64.57
55418;BME280;41287;47.554;7.844;2023-02-21T07:10:27;98494.63;;;17.23;64.16
55418;BME280;41287;47.554;7.844;2023-02-21T07:12:52;98503.03;;;17.21;64.40
55418;BME280;41287;47.554;7.844;2023-02-21T07:15:18;98494.91;;;17.21;64.24
55418;BME280;41287;47.554;7.844;2023-02-21T07:17:43;98497.94;;;17.20;63.88
55418;BME280;41287;47.554;7.844;2023-02-21T07:20:09;98497.94;;;17.20;63.64
55418;BME280;41287;47.554;7.844;2023-02-21T07:22:34;98492.84;;;17.18;63.89
55418;BME280;41287;47.554;7.844;2023-02-21T07:24:59;98496.38;;;17.19;63.83
55418;BME280;41287;47.554;7.844;2023-02-21T07:27:27;98498.28;;;17.18;63.66
55418;BME280;41287;47.554;7.844;2023-02-21T07:29:52;98495.56;;;17.18;63.71
55418;BME280;41287;47.554;7.844;2023-02-21T07:32:18;98495.56;;;17.18;63.72
55418;BME280;41287;47.554;7.844;2023-02-21T07:34:43;98497.47;;;17.18;63.73
55418;BME280;41287;47.554;7.844;2023-02-21T07:37:09;98493.16;;;17.17;63.68
55418;BME280;41287;47.554;7.844;2023-02-21T07:39:37;98497.78;;;17.16;63.71
55418;BME280;41287;47.554;7.844;2023-02-21T07:42:03;98499.69;;;17.16;63.77
55418;BME280;41287;47.554;7.844;2023-02-21T07:44:29;98511.31;;;17.16;63.73
55418;BME280;41287;47.554;7.844;2023-02-21T07:46:56;98497.78;;;17.16;63.59
55418;BME280;41287;47.554;7.844;2023-02-21T07:49:21;98501.59;;;17.15;63.81
55418;BME280;41287;47.554;7.844;2023-02-21T07:51:47;98501.91;;;17.14;63.55
55418;BME280;41287;47.554;7.844;2023-02-21T07:54:12;98507.31;;;17.14;63.66
55418;BME280;41287;47.554;7.844;2023-02-21T07:56:48;98507.66;;;17.12;63.57
55418;BME280;41287;47.554;7.844;2023-02-21T07:59:16;98511.94;;;17.13;63.64
55418;BME280;41287;47.554;7.844;2023-02-21T08:01:41;98510.03;;;17.14;63.74
55418;BME280;41287;47.554;7.844;2023-02-21T08:04:06;98503.81;;;17.13;63.74
55418;BME280;41287;47.554;7.844;2023-02-21T08:06:35;98511.13;;;17.13;63.79
55418;BME280;41287;47.554;7.844;2023-02-21T08:09:04;98515.78;;;17.12;63.67
55418;BME280;41287;47.554;7.844;2023-02-21T08:11:30;98495.22;;;17.11;63.81
55418;BME280;41287;47.554;7.844;2023-02-21T08:13:56;98500.63;;;17.11;63.68
55418;BME280;41287;47.554;7.844;2023-02-21T08:16:22;98502.53;;;17.11;63.85
55418;BME280;41287;47.554;7.844;2023-02-21T08:18:50;98501.75;;;17.10;63.59
55418;BME280;41287;47.554;7.844;2023-02-21T08:21:15;98493.63;;;17.10;63.51
55418;BME280;41287;47.554;7.844;2023-02-21T08:23:41;98490.91;;;17.10;63.61
55418;BME280;41287;47.554;7.844;2023-02-21T08:26:06;98481.50;;;17.08;63.68
55418;BME280;41287;47.554;7.844;2023-02-21T08:28:32;98487.41;;;17.10;63.57
55418;BME280;41287;47.554;7.844;2023-02-21T08:30:57;98485.00;;;17.08;63.55
55418;BME280;41287;47.554;7.844;2023-02-21T08:33:23;98488.50;;;17.09;63.74
55418;BME280;41287;47.554;7.844;2023-02-21T08:35:48;98486.13;;;17.07;63.53
55418;BME280;41287;47.554;7.844;2023-02-21T08:38:14;98478.78;;;17.08;63.53
55418;BME280;41287;47.554;7.844;2023-02-21T08:40:39;98480.69;;;17.07;63.46
55418;BME280;41287;47.554;7.844;2023-02-21T08:43:06;98477.53;;;17.05;63.52
55418;BME280;41287;47.554;7.844;2023-02-21T08:45:33;98476.38;;;17.06;63.54
55418;BME280;41287;47.554;7.844;2023-02-21T08:47:58;98470.22;;;17.06;63.65
55418;BME280;41287;47.554;7.844;2023-02-21T08:50:25;98474.81;;;17.05;63.51
55418;BME280;41287;47.554;7.844;2023-02-21T08:52:51;98470.97;;;17.06;63.71
55418;BME280;41287;47.554;7.844;2023-02-21T08:55:19;98460.47;;;17.05;63.56
55418;BME280;41287;47.554;7.844;2023-02-21T08:57:48;98464.78;;;17.06;63.49
55418;BME280;41287;47.554;7.844;2023-02-21T09:00:14;98459.69;;;17.04;63.56
55418;BME280;41287;47.554;7.844;2023-02-21T09:02:40;98459.69;;;17.04;63.59
55418;BME280;41287;47.554;7.844;2023-02-21T09:05:11;98454.56;;;17.03;63.46
55418;BME280;41287;47.554;7.844;2023-02-21T09:07:36;98445.34;;;17.04;63.47
55418;BME280;41287;47.554;7.844;2023-02-21T09:10:02;98455.38;;;17.03;63.51
55418;BME280;41287;47.554;7.844;2023-02-21T09:12:28;98443.75;;;17.03;63.61
55418;BME280;41287;47.554;7.844;2023-02-21T09:14:53;98444.53;;;17.03;63.60
55418;BME280;41287;47.554;7.844;2023-02-21T09:17:19;98440.25;;;17.02;63.36
55418;BME280;41287;47.554;7.844;2023-02-21T09:19:44;98438.63;;;17.01;63.54
55418;BME280;41287;47.554;7.844;2023-02-21T09:22:11;98437.53;;;17.02;63.56
55418;BME280;41287;47.554;7.844;2023-02-21T09:24:37;98429.41;;;17.02;63.59
55418;BME280;41287;47.554;7.844;2023-02-21T09:27:03;98436.72;;;17.02;63.45
55418;BME280;41287;47.554;7.844;2023-02-21T09:29:30;98427.81;;;17.01;63.38
55418;BME280;41287;47.554;7.844;2023-02-21T09:31:56;98432.44;;;17.01;63.43
55418;BME280;41287;47.554;7.844;2023-02-21T09:34:22;98429.72;;;17.01;63.48
55418;BME280;41287;47.554;7.844;2023-02-21T09:36:48;98432.44;;;17.01;63.46
55418;BME280;41287;47.554;7.844;2023-02-21T09:39:15;98427.31;;;16.99;63.26
55418;BME280;41287;47.554;7.844;2023-02-21T09:41:41;98416.50;;;16.99;62.80
55418;BME280;41287;47.554;7.844;2023-02-21T09:44:23;98416.81;;;16.97;62.85
55418;BME280;41287;47.554;7.844;2023-02-21T09:47:00;98411.41;;;16.97;62.32
55418;BME280;41287;47.554;7.844;2023-02-21T09:49:33;98401.69;;;16.96;62.36
55418;BME280;41287;47.554;7.844;2023-02-21T09:52:00;98408.72;;;16.97;62.19
55418;BME280;41287;47.554;7.844;2023-02-21T09:54:34;98404.41;;;16.96;62.22
55418;BME280;41287;47.554;7.844;2023-02-21T09:57:03;98402.50;;;16.97;62.11
55418;BME280;41287;47.554;7.844;2023-02-21T09:59:29;98402.50;;;16.97;62.32
55418;BME280;41287;47.554;7.844;2023-02-21T10:05:14;98409.00;;;16.96;62.24
55418;BME280;41287;47.554;7.844;2023-02-21T10:10:20;98393.38;;;16.93;62.44
55418;BME280;41287;47.554;7.844;2023-02-21T10:15:53;98390.38;;;16.94;62.59
55418;BME280;41287;47.554;7.844;2023-02-21T10:20:59;98384.16;;;16.94;62.36
55418;BME280;41287;47.554;7.844;2023-02-21T10:23:36;98378.28;;;16.92;62.37
55418;BME280;41287;47.554;7.844;2023-02-21T10:26:10;98376.69;;;16.91;62.34
55418;BME280;41287;47.554;7.844;2023-02-21T10:28:37;98370.16;;;16.92;62.36
55418;BME280;41287;47.554;7.844;2023-02-21T10:31:10;98367.47;;;16.92;62.28
55418;BME280;41287;47.554;7.844;2023-02-21T10:33:37;98374.44;;;16.93;62.32
55418;BME280;41287;47.554;7.844;2023-02-21T10:36:10;98367.78;;;16.90;62.44
55418;BME280;41287;47.554;7.844;2023-02-21T10:38:36;98364.25;;;16.90;62.57
55418;BME280;41287;47.554;7.844;2023-02-21T10:41:04;98351.22;;;16.92;62.45
55418;BME280;41287;47.554;7.844;2023-02-21T10:48:50;98348.03;;;16.90;62.43
55418;BME280;41287;47.554;7.844;2023-02-21T10:51:28;98342.13;;;16.88;62.43
55418;BME280;41287;47.554;7.844;2023-02-21T10:54:24;98351.03;;;16.88;62.50
55418;BME280;41287;47.554;7.844;2023-02-21T10:56:52;98339.91;;;16.90;62.58
55418;BME280;41287;47.554;7.844;2023-02-21T10:59:27;98342.13;;;16.88;62.56
55418;BME280;41287;47.554;7.844;2023-02-21T11:01:56;98330.19;;;16.89;62.65
55418;BME280;41287;47.554;7.844;2023-02-21T11:04:25;98325.88;;;16.88;62.50
55418;BME280;41287;47.554;7.844;2023-02-21T11:07:06;98315.38;;;16.86;62.54
55418;BME280;41287;47.554;7.844;2023-02-21T11:09:43;98306.44;;;16.86;62.45
55418;BME280;41287;47.554;7.844;2023-02-21T11:12:19;98303.44;;;16.87;62.51
55418;BME280;41287;47.554;7.844;2023-02-21T11:17:17;98302.63;;;16.87;62.43
55418;BME280;41287;47.554;7.844;2023-02-21T11:19:47;98290.22;;;16.86;62.55
55418;BME280;41287;47.554;7.844;2023-02-21T11:22:14;98287.50;;;16.86;62.47
55418;BME280;41287;47.554;7.844;2023-02-21T11:25:02;98284.03;;;16.85;62.55
55418;BME280;41287;47.554;7.844;2023-02-21T11:27:32;98290.22;;;16.86;62.66
55418;BME280;41287;47.554;7.844;2023-02-21T11:30:00;98273.19;;;16.85;62.53
55418;BME280;41287;47.554;7.844;2023-02-21T11:32:30;98262.38;;;16.85;62.59
55418;BME280;41287;47.554;7.844;2023-02-21T11:35:21;98255.69;;;16.83;62.65
55418;BME280;41287;47.554;7.844;2023-02-21T11:38:38;98255.38;;;16.84;62.56
55418;BME280;41287;47.554;7.844;2023-02-21T11:40:48;98253.47;;;16.85;62.66
55418;BME280;41287;47.554;7.844;2023-02-21T11:43:25;98242.16;;;16.83;62.67
55418;BME280;41287;47.554;7.844;2023-02-21T11:46:02;98239.44;;;16.83;62.61
55418;BME280;41287;47.554;7.844;2023-02-21T11:48:33;98227.50;;;16.84;62.64
55418;BME280;41287;47.554;7.844;2023-02-21T11:51:05;98232.91;;;16.84;62.56
55418;BME280;41287;47.554;7.844;2023-02-21T11:53:38;98225.91;;;16.83;62.72
55418;BME280;41287;47.554;7.844;2023-02-21T12:01:19;98204.75;;;16.85;62.47
55418;BME280;41287;47.554;7.844;2023-02-21T12:06:29;98199.16;;;16.81;62.73
55418;BME280;41287;47.554;7.844;2023-02-21T12:09:18;98202.66;;;16.82;62.57
55418;BME280;41287;47.554;7.844;2023-02-21T12:17:11;98184.34;;;16.79;62.71
55418;BME280;41287;47.554;7.844;2023-02-21T12:22:55;98170.50;;;16.80;62.63
55418;BME280;41287;47.554;7.844;2023-02-21T12:25:31;98166.19;;;16.79;62.79
55418;BME280;41287;47.554;7.844;2023-02-21T12:28:13;98165.41;;;16.79;62.76
55418;BME280;41287;47.554;7.844;2023-02-21T12:33:41;98153.00;;;16.78;62.74
55418;BME280;41287;47.554;7.844;2023-02-21T12:39:29;98144.41;;;16.76;62.77
55418;BME280;41287;47.554;7.844;2023-02-21T12:42:04;98139.47;;;16.78;62.62
55418;BME280;41287;47.554;7.844;2023-02-21T12:45:04;98144.09;;;16.77;62.80
55418;BME280;41287;47.554;7.844;2023-02-21T12:47:37;98131.38;;;16.78;62.74
55418;BME280;41287;47.554;7.844;2023-02-21T12:50:29;98127.38;;;16.75;62.86
55418;BME280;41287;47.554;7.844;2023-02-21T12:53:00;98124.34;;;16.77;62.81
55418;BME280;41287;47.554;7.844;2023-02-21T12:56:05;98118.47;;;16.75;62.86
55418;BME280;41287;47.554;7.844;2023-02-21T12:58:41;98120.84;;;16.76;62.73
55418;BME280;41287;47.554;7.844;2023-02-21T13:01:19;98106.53;;;16.76;62.68
55418;BME280;41287;47.554;7.844;2023-02-21T13:10:01;98082.50;;;16.74;62.68
55418;BME280;41287;47.554;7.844;2023-02-21T13:12:37;98081.38;;;16.75;62.77
55418;BME280;41287;47.554;7.844;2023-02-21T13:15:24;98078.19;;;16.73;62.80
55418;BME280;41287;47.554;7.844;2023-02-21T13:18:20;98072.47;;;16.75;62.72
55418;BME280;41287;47.554;7.844;2023-02-21T13:21:32;98070.06;;;16.73;62.87
55418;BME280;41287;47.554;7.844;2023-02-21T13:24:09;98067.84;;;16.75;62.75
55418;BME280;41287;47.554;7.844;2023-02-21T13:29:02;98056.22;;;16.75;62.75
55418;BME280;41287;47.554;7.844;2023-02-21T13:31:34;98058.13;;;16.74;62.77
55418;BME280;41287;47.554;7.844;2023-02-21T13:34:08;98057.34;;;16.74;62.73
55418;BME280;41287;47.554;7.844;2023-02-21T13:39:16;98053.84;;;16.73;62.74
55418;BME280;41287;47.554;7.844;2023-02-21T13:41:45;98045.72;;;16.73;62.82
55418;BME280;41287;47.554;7.844;2023-02-21T13:44:21;98049.53;;;16.72;62.78
55418;BME280;41287;47.554;7.844;2023-02-21T13:49:44;98037.94;;;16.72;62.90
55418;BME280;41287;47.554;7.844;2023-02-21T13:57:50;98020.56;;;16.73;62.72
55418;BME280;41287;47.554;7.844;2023-02-21T14:08:41;98008.97;;;16.72;62.62
55418;BME280;41287;47.554;7.844;2023-02-21T14:13:40;98002.78;;;16.72;62.76
55418;BME280;41287;47.554;7.844;2023-02-21T14:23:48;97979.53;;;16.71;62.95
55418;BME280;41287;47.554;7.844;2023-02-21T14:26:36;97977.16;;;16.69;62.77
55418;BME280;41287;47.554;7.844;2023-02-21T14:29:09;97973.03;;;16.72;62.87
55418;BME280;41287;47.554;7.844;2023-02-21T14:39:51;97967.91;;;16.70;62.79
55418;BME280;41287;47.554;7.844;2023-02-21T14:53:44;97957.41;;;16.69;62.74
55418;BME280;41287;47.554;7.844;2023-02-21T15:04:41;97950.91;;;16.70;62.69
55418;BME280;41287;47.554;7.844;2023-02-21T15:07:33;97945.00;;;16.68;62.76
55418;BME280;41287;47.554;7.844;2023-02-21T15:10:14;97946.59;;;16.69;62.85
55418;BME280;41287;47.554;7.844;2023-02-21T15:12:51;97942.31;;;16.68;62.70
55418;BME280;41287;47.554;7.844;2023-02-21T15:15:38;97938.78;;;16.67;62.79
55418;BME280;41287;47.554;7.844;2023-02-21T15:18:08;97943.91;;;16.69;62.93
55418;BME280;41287;47.554;7.844;2023-02-21T15:20:40;97945.00;;;16.68;62.74
55418;BME280;41287;47.554;7.844;2023-02-21T15:23:16;97944.22;;;16.67;62.83
55418;BME280;41287;47.554;7.844;2023-02-21T15:25:44;97943.91;;;16.69;62.82
55418;BME280;41287;47.554;7.844;2023-02-21T15:28:27;97935.31;;;16.67;62.68
55418;BME280;41287;47.554;7.844;2023-02-21T15:31:04;97937.38;;;16.70;62.58
55418;BME280;41287;47.554;7.844;2023-02-21T15:33:39;97934.19;;;16.68;62.78
55418;BME280;41287;47.554;7.844;2023-02-21T15:36:17;97933.38;;;16.67;62.84
55418;BME280;41287;47.554;7.844;2023-02-21T15:39:04;97934.19;;;16.68;62.79
55418;BME280;41287;47.554;7.844;2023-02-21T15:46:47;97934.19;;;16.68;62.58
55418;BME280;41287;47.554;7.844;2023-02-21T15:49:26;97923.69;;;16.66;62.54
55418;BME280;41287;47.554;7.844;2023-02-21T15:51:53;97922.56;;;16.67;62.72